Dodge, NE (68633)

8:22 PM CST on February 07, 2016 (GMT -0600)
Skywave Wireless, Inc. | | Change Station
CLOSE
Current Station
Personal Weather Station
Location: West Point, NE
Elevation: 1312 ft
Nearby Weather Stations
Active Advisory: Wind Advisory Active Notice: Public Information Statement

Elev 1312 ft 41.84 °N, 96.71 °W | Updated 21 seconds ago

Overcast
Overcast
32.4 °F
Feels Like 21 °F
N
17.0
Wind Variable Wind from NW
Gusts 22.4 mph

Today
High -- | Low -- °F
--% Chance of Precip.
Yesterday
High -- | Low -- °F
Precip. -- in
Pressure 30.02 in
Visibility 10.0 miles
Clouds Scattered Clouds 3600 ft
Mostly Cloudy 6000 ft
Overcast 9000 ft
Windchill 21 °F
Dew Point 23 °F
Humidity 67%
Rainfall 0.00 in
Snow Depth Not available.
7:33 AM 5:50 PM
Waning Crescent, 0% visible
METAR KFET 080215Z AUTO 31028G40KT 10SM SCT036 BKN060 OVC090 01/M04 A3002 RMK AO2 T00111037
Pressure 30.02 in
Visibility 10.0 miles
Clouds Scattered Clouds 3600 ft
Mostly Cloudy 6000 ft
Overcast 9000 ft
Windchill 21 °F
Dew Point 23 °F
Humidity 67%
Rainfall 0.00 in
Snow Depth Not available.
7:33 AM 5:50 PM
Waning Crescent, 0% visible
METAR KFET 080215Z AUTO 31028G40KT 10SM SCT036 BKN060 OVC090 01/M04 A3002 RMK AO2 T00111037

10-Day Weather Forecast

Almanac

Astronomy

Feb. 07, 2016 Rise Set
Actual Time
Civil Twilight
Nautical Twilight
Astronomical Twilight
Moon
Length of Visible Light
Length of Day
Tomorrow will be .
, % of the Moon is Illuminated

Today's Extremes

State Highs State Lows

Community

WunderPhotos

Upload Photos

1,891,364 photos uploaded!

WunderBlog® & News

Nearby

Air Quality

  Air Quality AQ Index Pollutant
Not available.

Snow Depth

Station Depth Elevation

Earthquake Activity

City Distance Mag. Time & Date
Minimum magnitude displayed is 2.5.

Coastal Water Temperatures

Place Temperature

Stations

Nearby Weather Stations

Station Location Temp. Windchill Dew Point Humidity Wind Precip. Elev Updated Type
                   

Watches & Warnings

Wind Advisory
Issued: 7:53 PM CST Feb. 7, 2016 – National Weather Service

... Wind Advisory remains in effect until noon CST Monday...

* timing... strong northwest winds will continue through Monday
morning.

* Winds... northwest winds of 30 to 40 mph with gusts to 50 mph.

* Impacts... winds of this magnitude will be hazardous to
motorists... especially those with high profile vehicles. In
addition... snow showers this evening and overnight may lead to
areas of blowing snow. This may create hazardous travel
conditions in parts of the area.

Precautionary/preparedness actions...

A Wind Advisory means that sustained wind speeds between 30 to
39 mph or gusts between 45 to 57 mph are expected. Winds this
strong can make driving difficult... especially for high profile
vehicles. Use extra caution.